Aérodrome :
LOGIN :

S'inscrire | Disclaimer

   EN    FR    IT 

 










Légende :    VFR   VFR Marginal   IFR   IFR Intensif   IFR Très Intensif
Visi : 
Plafond : 
>= 8 km
>= 3000ft
5 à 8 km
1000 à 3000 ft
1500m à 5 km
500 à 1000 ft
800 à 1500m
200 à 500 ft
< 800m
< 200 ft
Symboles :   Orages  Brouillard  Fortes neiges  Fortes précipitations  Vent > 20 kt
SIGMETs :   Divers  Orages  Givrage  Turbulence  Onde Orograph.  Cendres Volcan.







- Altitude de l'aérodrome : 184 ft
- Code IATA : BRU


EBBR - Bruxelles

DERNIER METAR :
  • 231550Z 25027G44KT 9999 SCT035 10/02 Q0993 TEMPO 26030G50KT

METARs EXPIRÉS :
  • 231520Z 24032G44KT 9999 SCT035 10/02 Q0993 TEMPO 25030G50KT
  • 231450Z 25027G39KT 9999 SCT035 10/02 Q0993 TEMPO 25030G50KT
  • 231420Z 25033G51KT 9999 -SHRA SCT030 BKN045 10/02 Q0993 TEMPO 25030G50KT
  • 231350Z 25029G43KT 9999 SCT030 BKN045 11/03 Q0993 TEMPO 25028G45KT
  • 231320Z 24027KT 200V260 9999 SCT035 11/06 Q0993 TEMPO 25025G40KT

TAF TAF EBBR
Valide du 23 à 12h jusqu'au 24 à 18h UTC


231100Z 2312/2418 25025G45KT 9999 FEW020 SCT035
PROB40
TEMPO 2316/2320 4000 SHRA BKN012
TEMPO 2320/2401 3500 RA SHRA BKN009
BECMG 2321/2323 29015G30KT
BECMG 2401/2403 29009KT
TEMPO 2401/2416 3500 SHRAGS BKN008 BKN012CB
Pas de NOTAMs connus pour ce terrain.
2 SIGMETs publiés pour la FIR Brussels (EBBU) :
 
Turbulence forte
EBBU SIGMET 04 VALID 231600/232000 EBBR
EBBU BRUSSELS FIR SEV TURB FCST ENTIRE FIR SFC/FL050 MOV E 25KT NC=
Turbulence forte
EBBU SIGMET 03 VALID 231200/231600 EBBR
EBBU BRUSSELS FIR SEV TURB FCST ENTIRE FIR SFC/FL050 MOV E 25KT NC=



MET'MAP, la Météo Aéronautique d'un coup d'oeil ! - Copyright ORBIFLY Décembre 2007 - Disclaimer

ORBIFLY MET'MAP TEAM :

Programmation & Développement : Alexandra Zaïnal
Conception & Développement : Baudouin d'Aumeries
Co-Programmation & Développement : Marc-Olivier Méhu
Soutien technique & logistique : Manuel Goepfert

Contact : metmap@orbifly.com




SOURCES & CREDITS :

   NOAA